sensor_id;sensor_type;location;lat;lon;timestamp;pressure;altitude;pressure_sealevel;temperature;humidity
967;BME280;56108;48.730;9.304;2022-10-15T00:01:05;96823.38;;;13.01;100.00
967;BME280;56108;48.730;9.304;2022-10-15T00:03:14;96811.72;;;13.02;100.00
967;BME280;56108;48.730;9.304;2022-10-15T00:05:22;96810.31;;;13.08;100.00
967;BME280;56108;48.730;9.304;2022-10-15T00:07:30;96820.41;;;13.04;100.00
967;BME280;56108;48.730;9.304;2022-10-15T00:09:39;96820.72;;;13.11;100.00
967;BME280;56108;48.730;9.304;2022-10-15T00:11:47;96815.50;;;13.10;100.00
967;BME280;56108;48.730;9.304;2022-10-15T00:13:59;96814.66;;;13.09;100.00
967;BME280;56108;48.730;9.304;2022-10-15T00:16:13;96816.91;;;13.14;100.00
967;BME280;56108;48.730;9.304;2022-10-15T00:18:22;96816.91;;;13.14;100.00
967;BME280;56108;48.730;9.304;2022-10-15T00:20:31;96822.41;;;13.12;100.00
967;BME280;56108;48.730;9.304;2022-10-15T00:22:39;96819.72;;;13.12;100.00
967;BME280;56108;48.730;9.304;2022-10-15T00:24:47;96820.97;;;13.18;100.00
967;BME280;56108;48.730;9.304;2022-10-15T00:26:55;96813.97;;;13.17;100.00
967;BME280;56108;48.730;9.304;2022-10-15T00:29:04;96810.28;;;13.18;100.00
967;BME280;56108;48.730;9.304;2022-10-15T00:31:17;96812.59;;;13.22;100.00
967;BME280;56108;48.730;9.304;2022-10-15T00:33:27;96810.03;;;13.21;100.00
967;BME280;56108;48.730;9.304;2022-10-15T00:35:35;96812.44;;;13.24;100.00
967;BME280;56108;48.730;9.304;2022-10-15T00:37:44;96811.59;;;13.23;100.00
967;BME280;56108;48.730;9.304;2022-10-15T00:39:52;96819.34;;;13.26;100.00
967;BME280;56108;48.730;9.304;2022-10-15T00:42:02;96816.50;;;13.28;100.00
967;BME280;56108;48.730;9.304;2022-10-15T00:46:53;96804.56;;;13.32;100.00
967;BME280;56108;48.730;9.304;2022-10-15T00:49:11;96805.66;;;13.29;100.00
967;BME280;56108;48.730;9.304;2022-10-15T00:51:23;96807.34;;;13.40;100.00
967;BME280;56108;48.730;9.304;2022-10-15T00:53:35;96800.88;;;13.43;100.00
967;BME280;56108;48.730;9.304;2022-10-15T00:55:44;96804.41;;;13.43;100.00
967;BME280;56108;48.730;9.304;2022-10-15T00:57:58;96798.31;;;13.41;100.00
967;BME280;56108;48.730;9.304;2022-10-15T01:00:12;96795.38;;;13.44;100.00
967;BME280;56108;48.730;9.304;2022-10-15T01:02:25;96798.31;;;13.41;100.00
967;BME280;56108;48.730;9.304;2022-10-15T01:04:33;96800.16;;;13.41;100.00
967;BME280;56108;48.730;9.304;2022-10-15T01:06:45;96791.72;;;13.45;100.00
967;BME280;56108;48.730;9.304;2022-10-15T01:08:53;96780.91;;;13.47;100.00
967;BME280;56108;48.730;9.304;2022-10-15T01:11:16;96780.59;;;13.50;100.00
967;BME280;56108;48.730;9.304;2022-10-15T01:13:34;96778.75;;;13.50;100.00
967;BME280;56108;48.730;9.304;2022-10-15T01:15:52;96779.47;;;13.52;100.00
967;BME280;56108;48.730;9.304;2022-10-15T01:18:08;96785.22;;;13.57;100.00
967;BME280;56108;48.730;9.304;2022-10-15T01:20:50;96776.34;;;13.57;100.00
967;BME280;56108;48.730;9.304;2022-10-15T01:25:44;96772.00;;;13.56;100.00
967;BME280;56108;48.730;9.304;2022-10-15T01:27:58;96775.81;;;13.53;100.00
967;BME280;56108;48.730;9.304;2022-10-15T01:30:30;96774.97;;;13.53;100.00
967;BME280;56108;48.730;9.304;2022-10-15T01:32:47;96769.75;;;13.51;100.00
967;BME280;56108;48.730;9.304;2022-10-15T01:35:07;96765.38;;;13.60;100.00
967;BME280;56108;48.730;9.304;2022-10-15T01:37:22;96765.81;;;13.55;100.00
967;BME280;56108;48.730;9.304;2022-10-15T01:39:38;96763.84;;;13.57;100.00
967;BME280;56108;48.730;9.304;2022-10-15T01:41:51;96762.09;;;13.66;100.00
967;BME280;56108;48.730;9.304;2022-10-15T01:44:03;96770.13;;;13.66;100.00
967;BME280;56108;48.730;9.304;2022-10-15T01:46:49;96763.69;;;13.59;100.00
967;BME280;56108;48.730;9.304;2022-10-15T01:49:02;96761.03;;;13.59;100.00
967;BME280;56108;48.730;9.304;2022-10-15T01:51:14;96756.34;;;13.61;100.00
967;BME280;56108;48.730;9.304;2022-10-15T01:53:26;96756.47;;;13.69;100.00
967;BME280;56108;48.730;9.304;2022-10-15T01:55:36;96754.94;;;13.67;100.00
967;BME280;56108;48.730;9.304;2022-10-15T01:57:55;96748.22;;;13.63;100.00
967;BME280;56108;48.730;9.304;2022-10-15T02:00:06;96746.50;;;13.62;100.00
967;BME280;56108;48.730;9.304;2022-10-15T02:02:20;96753.00;;;13.59;100.00
967;BME280;56108;48.730;9.304;2022-10-15T02:04:30;96752.84;;;13.61;100.00
967;BME280;56108;48.730;9.304;2022-10-15T02:06:41;96750.16;;;13.61;100.00
967;BME280;56108;48.730;9.304;2022-10-15T02:08:59;96747.91;;;13.66;100.00
967;BME280;56108;48.730;9.304;2022-10-15T02:11:11;96742.72;;;13.64;100.00
967;BME280;56108;48.730;9.304;2022-10-15T02:13:24;96747.91;;;13.66;100.00
967;BME280;56108;48.730;9.304;2022-10-15T02:15:45;96745.53;;;13.63;100.00
967;BME280;56108;48.730;9.304;2022-10-15T02:18:09;96740.03;;;13.64;100.00
967;BME280;56108;48.730;9.304;2022-10-15T02:20:22;96749.16;;;13.71;100.00
967;BME280;56108;48.730;9.304;2022-10-15T02:22:34;96740.59;;;13.68;100.00
967;BME280;56108;48.730;9.304;2022-10-15T02:24:49;96741.56;;;13.67;100.00
967;BME280;56108;48.730;9.304;2022-10-15T02:27:02;96739.72;;;13.67;100.00
967;BME280;56108;48.730;9.304;2022-10-15T02:29:15;96748.97;;;13.73;100.00
967;BME280;56108;48.730;9.304;2022-10-15T02:31:28;96741.28;;;13.70;100.00
967;BME280;56108;48.730;9.304;2022-10-15T02:33:41;96741.72;;;13.65;100.00
967;BME280;56108;48.730;9.304;2022-10-15T02:35:51;96743.78;;;13.71;100.00
967;BME280;56108;48.730;9.304;2022-10-15T02:38:04;96754.34;;;13.73;100.00
967;BME280;56108;48.730;9.304;2022-10-15T02:40:14;96750.28;;;13.69;100.00
967;BME280;56108;48.730;9.304;2022-10-15T02:42:24;96750.97;;;13.71;100.00
967;BME280;56108;48.730;9.304;2022-10-15T02:44:32;96752.13;;;13.68;100.00
967;BME280;56108;48.730;9.304;2022-10-15T02:46:40;96752.81;;;13.70;100.00
967;BME280;56108;48.730;9.304;2022-10-15T02:48:58;96759.41;;;13.76;100.00
967;BME280;56108;48.730;9.304;2022-10-15T02:51:09;96752.22;;;13.76;100.00
967;BME280;56108;48.730;9.304;2022-10-15T02:53:17;96755.22;;;13.73;100.00
967;BME280;56108;48.730;9.304;2022-10-15T02:55:25;96761.09;;;13.77;100.00
967;BME280;56108;48.730;9.304;2022-10-15T02:57:34;96763.47;;;13.80;100.00
967;BME280;56108;48.730;9.304;2022-10-15T02:59:43;96758.81;;;13.82;100.00
967;BME280;56108;48.730;9.304;2022-10-15T03:01:51;96767.28;;;13.77;100.00
967;BME280;56108;48.730;9.304;2022-10-15T03:04:03;96762.03;;;13.86;100.00
967;BME280;56108;48.730;9.304;2022-10-15T03:06:13;96772.91;;;13.84;100.00
967;BME280;56108;48.730;9.304;2022-10-15T03:08:24;96758.69;;;13.83;100.00
967;BME280;56108;48.730;9.304;2022-10-15T03:10:32;96765.00;;;13.82;100.00
967;BME280;56108;48.730;9.304;2022-10-15T03:12:41;96766.13;;;13.90;100.00
967;BME280;56108;48.730;9.304;2022-10-15T03:14:50;96760.31;;;13.94;100.00
967;BME280;56108;48.730;9.304;2022-10-15T03:16:59;96770.47;;;13.91;100.00
967;BME280;56108;48.730;9.304;2022-10-15T03:19:10;96767.63;;;13.92;100.00
967;BME280;56108;48.730;9.304;2022-10-15T03:21:21;96766.94;;;13.90;100.00
967;BME280;56108;48.730;9.304;2022-10-15T03:23:38;96768.34;;;13.94;100.00
967;BME280;56108;48.730;9.304;2022-10-15T03:25:53;96777.22;;;13.95;100.00
967;BME280;56108;48.730;9.304;2022-10-15T03:28:02;96774.53;;;13.95;100.00
967;BME280;56108;48.730;9.304;2022-10-15T03:30:17;96777.34;;;13.93;100.00
967;BME280;56108;48.730;9.304;2022-10-15T03:32:27;96772.00;;;13.93;100.00
967;BME280;56108;48.730;9.304;2022-10-15T03:34:42;96765.59;;;14.04;100.00
967;BME280;56108;48.730;9.304;2022-10-15T03:36:52;96763.91;;;14.03;100.00
967;BME280;56108;48.730;9.304;2022-10-15T03:39:00;96764.25;;;14.00;100.00
967;BME280;56108;48.730;9.304;2022-10-15T03:41:09;96756.78;;;13.94;100.00
967;BME280;56108;48.730;9.304;2022-10-15T03:43:22;96756.50;;;13.97;100.00
967;BME280;56108;48.730;9.304;2022-10-15T03:45:32;96769.31;;;13.93;100.00
967;BME280;56108;48.730;9.304;2022-10-15T03:47:59;96771.56;;;13.98;100.00
967;BME280;56108;48.730;9.304;2022-10-15T03:50:12;96764.91;;;14.02;100.00
967;BME280;56108;48.730;9.304;2022-10-15T03:52:20;96774.34;;;14.06;100.00
967;BME280;56108;48.730;9.304;2022-10-15T03:54:31;96777.19;;;14.04;100.00
967;BME280;56108;48.730;9.304;2022-10-15T03:56:39;96787.00;;;14.04;100.00
967;BME280;56108;48.730;9.304;2022-10-15T03:59:06;96786.03;;;14.05;100.00
967;BME280;56108;48.730;9.304;2022-10-15T04:01:16;96778.28;;;14.02;100.00
967;BME280;56108;48.730;9.304;2022-10-15T04:03:25;96785.47;;;14.01;100.00
967;BME280;56108;48.730;9.304;2022-10-15T04:05:36;96797.31;;;13.99;100.00
967;BME280;56108;48.730;9.304;2022-10-15T04:07:47;96790.84;;;14.01;100.00
967;BME280;56108;48.730;9.304;2022-10-15T04:09:57;96796.75;;;14.05;100.00
967;BME280;56108;48.730;9.304;2022-10-15T04:12:13;96795.19;;;14.02;100.00
967;BME280;56108;48.730;9.304;2022-10-15T04:14:22;96800.53;;;14.02;100.00
967;BME280;56108;48.730;9.304;2022-10-15T04:16:31;96799.41;;;14.05;100.00
967;BME280;56108;48.730;9.304;2022-10-15T04:18:48;96798.56;;;14.04;100.00
967;BME280;56108;48.730;9.304;2022-10-15T04:21:00;96797.72;;;14.04;100.00
967;BME280;56108;48.730;9.304;2022-10-15T04:23:11;96798.03;;;14.01;100.00
967;BME280;56108;48.730;9.304;2022-10-15T04:25:27;96811.41;;;14.01;100.00
967;BME280;56108;48.730;9.304;2022-10-15T04:27:35;96811.25;;;14.02;100.00
967;BME280;56108;48.730;9.304;2022-10-15T04:29:47;96808.53;;;14.12;100.00
967;BME280;56108;48.730;9.304;2022-10-15T04:31:56;96815.59;;;14.03;100.00
967;BME280;56108;48.730;9.304;2022-10-15T04:34:05;96820.91;;;14.13;100.00
967;BME280;56108;48.730;9.304;2022-10-15T04:36:16;96812.09;;;14.03;100.00
967;BME280;56108;48.730;9.304;2022-10-15T04:38:36;96824.19;;;14.07;100.00
967;BME280;56108;48.730;9.304;2022-10-15T04:40:45;96822.09;;;14.01;100.00
967;BME280;56108;48.730;9.304;2022-10-15T04:42:54;96819.25;;;14.02;100.00
967;BME280;56108;48.730;9.304;2022-10-15T04:45:03;96835.44;;;14.10;100.00
967;BME280;56108;48.730;9.304;2022-10-15T04:47:11;96829.69;;;14.05;100.00
967;BME280;56108;48.730;9.304;2022-10-15T04:49:28;96828.84;;;14.05;100.00
967;BME280;56108;48.730;9.304;2022-10-15T04:51:41;96829.53;;;14.07;100.00
967;BME280;56108;48.730;9.304;2022-10-15T04:53:54;96838.56;;;14.06;100.00
967;BME280;56108;48.730;9.304;2022-10-15T04:56:05;96838.72;;;14.04;100.00
967;BME280;56108;48.730;9.304;2022-10-15T04:58:13;96841.50;;;14.03;100.00
967;BME280;56108;48.730;9.304;2022-10-15T05:00:22;96840.81;;;14.01;100.00
967;BME280;56108;48.730;9.304;2022-10-15T05:02:49;96839.81;;;14.02;100.00
967;BME280;56108;48.730;9.304;2022-10-15T05:05:08;96839.81;;;14.02;100.00
967;BME280;56108;48.730;9.304;2022-10-15T05:07:45;96837.16;;;14.02;100.00
967;BME280;56108;48.730;9.304;2022-10-15T05:09:54;96841.25;;;13.96;100.00
967;BME280;56108;48.730;9.304;2022-10-15T05:12:02;96841.41;;;13.95;100.00
967;BME280;56108;48.730;9.304;2022-10-15T05:14:11;96848.00;;;14.00;100.00
967;BME280;56108;48.730;9.304;2022-10-15T05:16:29;96844.34;;;14.01;100.00
967;BME280;56108;48.730;9.304;2022-10-15T05:18:40;96845.34;;;14.00;100.00
967;BME280;56108;48.730;9.304;2022-10-15T05:20:50;96846.44;;;13.98;100.00
967;BME280;56108;48.730;9.304;2022-10-15T05:23:01;96858.31;;;13.95;100.00
967;BME280;56108;48.730;9.304;2022-10-15T05:25:12;96860.97;;;13.95;100.00
967;BME280;56108;48.730;9.304;2022-10-15T05:27:20;96853.94;;;13.94;100.00
967;BME280;56108;48.730;9.304;2022-10-15T05:29:29;96859.00;;;13.97;100.00
967;BME280;56108;48.730;9.304;2022-10-15T05:31:37;96859.25;;;14.04;100.00
967;BME280;56108;48.730;9.304;2022-10-15T05:33:53;96864.50;;;13.96;100.00
967;BME280;56108;48.730;9.304;2022-10-15T05:36:15;96868.00;;;13.96;100.00
967;BME280;56108;48.730;9.304;2022-10-15T05:38:33;96867.56;;;14.01;100.00
967;BME280;56108;48.730;9.304;2022-10-15T05:40:46;96874.63;;;13.92;100.00
967;BME280;56108;48.730;9.304;2022-10-15T05:43:00;96882.06;;;13.98;100.00
967;BME280;56108;48.730;9.304;2022-10-15T05:45:10;96879.81;;;13.94;100.00
967;BME280;56108;48.730;9.304;2022-10-15T05:47:18;96893.59;;;13.99;100.00
967;BME280;56108;48.730;9.304;2022-10-15T05:49:34;96894.06;;;13.94;100.00
967;BME280;56108;48.730;9.304;2022-10-15T05:51:49;96897.88;;;13.92;100.00
967;BME280;56108;48.730;9.304;2022-10-15T05:54:19;96899.69;;;13.91;100.00
967;BME280;56108;48.730;9.304;2022-10-15T05:56:28;96902.94;;;13.95;100.00
967;BME280;56108;48.730;9.304;2022-10-15T05:58:36;96902.50;;;13.99;100.00
967;BME280;56108;48.730;9.304;2022-10-15T06:00:45;96906.72;;;13.92;100.00
967;BME280;56108;48.730;9.304;2022-10-15T06:02:59;96902.19;;;14.02;100.00
967;BME280;56108;48.730;9.304;2022-10-15T06:05:08;96904.22;;;13.91;100.00
967;BME280;56108;48.730;9.304;2022-10-15T06:07:18;96908.88;;;13.89;100.00
967;BME280;56108;48.730;9.304;2022-10-15T06:09:29;96917.59;;;13.91;100.00
967;BME280;56108;48.730;9.304;2022-10-15T06:11:38;96929.53;;;13.96;100.00
967;BME280;56108;48.730;9.304;2022-10-15T06:13:47;96923.09;;;13.89;100.00
967;BME280;56108;48.730;9.304;2022-10-15T06:15:55;96924.50;;;13.83;100.00
967;BME280;56108;48.730;9.304;2022-10-15T06:18:04;96925.47;;;13.92;100.00
967;BME280;56108;48.730;9.304;2022-10-15T06:20:14;96927.72;;;13.87;100.00
967;BME280;56108;48.730;9.304;2022-10-15T06:22:23;96937.72;;;13.85;100.00
967;BME280;56108;48.730;9.304;2022-10-15T06:24:34;96946.31;;;13.89;100.00
967;BME280;56108;48.730;9.304;2022-10-15T06:26:44;96947.16;;;13.89;100.00
967;BME280;56108;48.730;9.304;2022-10-15T06:28:53;96945.44;;;13.88;100.00
967;BME280;56108;48.730;9.304;2022-10-15T06:31:05;96949.53;;;13.92;100.00
967;BME280;56108;48.730;9.304;2022-10-15T06:33:13;96955.44;;;13.86;100.00
967;BME280;56108;48.730;9.304;2022-10-15T06:35:23;96964.16;;;13.88;100.00
967;BME280;56108;48.730;9.304;2022-10-15T06:37:34;96969.41;;;13.90;100.00
967;BME280;56108;48.730;9.304;2022-10-15T06:39:45;96972.59;;;13.93;100.00
967;BME280;56108;48.730;9.304;2022-10-15T06:41:53;96974.16;;;13.96;100.00
967;BME280;56108;48.730;9.304;2022-10-15T06:44:14;96983.72;;;13.98;100.00
967;BME280;56108;48.730;9.304;2022-10-15T06:46:22;96992.47;;;14.00;100.00
967;BME280;56108;48.730;9.304;2022-10-15T06:48:32;96993.75;;;13.96;100.00
967;BME280;56108;48.730;9.304;2022-10-15T06:50:40;96999.50;;;13.92;100.00
967;BME280;56108;48.730;9.304;2022-10-15T06:52:48;97003.28;;;13.99;100.00
967;BME280;56108;48.730;9.304;2022-10-15T06:55:00;97009.63;;;13.98;100.00
967;BME280;56108;48.730;9.304;2022-10-15T06:57:09;97011.31;;;13.99;100.00
967;BME280;56108;48.730;9.304;2022-10-15T06:59:17;97020.22;;;13.99;100.00
967;BME280;56108;48.730;9.304;2022-10-15T07:01:26;97023.16;;;13.96;100.00
967;BME280;56108;48.730;9.304;2022-10-15T07:03:35;97031.03;;;13.98;100.00
967;BME280;56108;48.730;9.304;2022-10-15T07:05:45;97027.38;;;14.08;100.00
967;BME280;56108;48.730;9.304;2022-10-15T07:07:55;97032.72;;;14.08;100.00
967;BME280;56108;48.730;9.304;2022-10-15T07:10:07;97043.44;;;14.08;100.00
967;BME280;56108;48.730;9.304;2022-10-15T07:12:18;97047.09;;;14.07;100.00
967;BME280;56108;48.730;9.304;2022-10-15T07:14:26;97053.28;;;14.08;100.00
967;BME280;56108;48.730;9.304;2022-10-15T07:16:36;97052.44;;;14.17;100.00
967;BME280;56108;48.730;9.304;2022-10-15T07:18:46;97062.00;;;14.20;100.00
967;BME280;56108;48.730;9.304;2022-10-15T07:20:55;97064.81;;;14.18;100.00
967;BME280;56108;48.730;9.304;2022-10-15T07:23:04;97066.66;;;14.18;100.00
967;BME280;56108;48.730;9.304;2022-10-15T07:25:15;97072.84;;;14.18;100.00
967;BME280;56108;48.730;9.304;2022-10-15T07:27:24;97066.41;;;14.21;100.00
967;BME280;56108;48.730;9.304;2022-10-15T07:29:34;97071.19;;;14.27;100.00
967;BME280;56108;48.730;9.304;2022-10-15T07:31:43;97074.41;;;14.30;100.00
967;BME280;56108;48.730;9.304;2022-10-15T07:33:53;97081.72;;;14.38;100.00
967;BME280;56108;48.730;9.304;2022-10-15T07:36:03;97092.56;;;14.46;100.00
967;BME280;56108;48.730;9.304;2022-10-15T07:38:12;97093.56;;;14.55;100.00
967;BME280;56108;48.730;9.304;2022-10-15T07:40:24;97096.50;;;14.61;100.00
967;BME280;56108;48.730;9.304;2022-10-15T07:42:32;97097.75;;;14.77;100.00
967;BME280;56108;48.730;9.304;2022-10-15T07:44:42;97108.00;;;14.91;100.00
967;BME280;56108;48.730;9.304;2022-10-15T07:46:51;97112.78;;;14.97;100.00
967;BME280;56108;48.730;9.304;2022-10-15T07:49:00;97125.69;;;15.21;100.00
967;BME280;56108;48.730;9.304;2022-10-15T07:51:09;97130.81;;;15.42;100.00
967;BME280;56108;48.730;9.304;2022-10-15T07:53:18;97143.47;;;15.50;100.00
967;BME280;56108;48.730;9.304;2022-10-15T07:55:34;97149.53;;;15.52;100.00
967;BME280;56108;48.730;9.304;2022-10-15T07:57:42;97151.47;;;15.32;100.00
967;BME280;56108;48.730;9.304;2022-10-15T07:59:51;97146.94;;;15.32;100.00
967;BME280;56108;48.730;9.304;2022-10-15T08:02:00;97148.59;;;15.43;100.00
967;BME280;56108;48.730;9.304;2022-10-15T08:04:10;97154.63;;;15.45;100.00
967;BME280;56108;48.730;9.304;2022-10-15T08:06:19;97156.78;;;15.42;100.00
967;BME280;56108;48.730;9.304;2022-10-15T08:08:27;97161.41;;;15.49;100.00
967;BME280;56108;48.730;9.304;2022-10-15T08:10:38;97163.25;;;15.49;100.00
967;BME280;56108;48.730;9.304;2022-10-15T08:12:47;97161.44;;;15.39;100.00
967;BME280;56108;48.730;9.304;2022-10-15T08:14:55;97163.69;;;15.44;100.00
967;BME280;56108;48.730;9.304;2022-10-15T08:17:05;97165.34;;;15.45;100.00
967;BME280;56108;48.730;9.304;2022-10-15T08:19:13;97161.84;;;15.45;100.00
967;BME280;56108;48.730;9.304;2022-10-15T08:21:22;97160.97;;;15.54;100.00
967;BME280;56108;48.730;9.304;2022-10-15T08:23:30;97167.16;;;15.54;100.00
967;BME280;56108;48.730;9.304;2022-10-15T08:25:42;97162.06;;;15.61;100.00
967;BME280;56108;48.730;9.304;2022-10-15T08:27:52;97162.59;;;15.74;100.00
967;BME280;56108;48.730;9.304;2022-10-15T08:30:00;97167.56;;;15.69;100.00
967;BME280;56108;48.730;9.304;2022-10-15T08:32:09;97167.00;;;15.65;100.00
967;BME280;56108;48.730;9.304;2022-10-15T08:34:19;97165.22;;;15.84;100.00
967;BME280;56108;48.730;9.304;2022-10-15T08:36:27;97161.19;;;15.98;100.00
967;BME280;56108;48.730;9.304;2022-10-15T08:38:36;97172.44;;;16.01;100.00
967;BME280;56108;48.730;9.304;2022-10-15T08:40:50;97171.44;;;16.02;100.00
967;BME280;56108;48.730;9.304;2022-10-15T08:42:59;97180.22;;;16.22;100.00
967;BME280;56108;48.730;9.304;2022-10-15T08:45:13;97188.59;;;16.19;100.00
967;BME280;56108;48.730;9.304;2022-10-15T08:47:30;97177.78;;;16.11;100.00
967;BME280;56108;48.730;9.304;2022-10-15T08:49:46;97172.56;;;16.09;100.00
967;BME280;56108;48.730;9.304;2022-10-15T08:52:02;97167.47;;;16.06;100.00
967;BME280;56108;48.730;9.304;2022-10-15T08:54:15;97176.97;;;16.01;100.00
967;BME280;56108;48.730;9.304;2022-10-15T08:56:30;97168.41;;;16.15;100.00
967;BME280;56108;48.730;9.304;2022-10-15T08:58:45;97169.81;;;16.37;100.00
967;BME280;56108;48.730;9.304;2022-10-15T09:01:01;97177.03;;;16.18;100.00
967;BME280;56108;48.730;9.304;2022-10-15T09:03:24;97186.53;;;16.31;100.00
967;BME280;56108;48.730;9.304;2022-10-15T09:05:42;97190.69;;;16.61;100.00
967;BME280;56108;48.730;9.304;2022-10-15T09:08:01;97193.31;;;16.70;100.00
967;BME280;56108;48.730;9.304;2022-10-15T09:10:15;97186.75;;;16.37;100.00
967;BME280;56108;48.730;9.304;2022-10-15T09:12:37;97197.53;;;16.55;100.00
967;BME280;56108;48.730;9.304;2022-10-15T09:14:50;97193.00;;;16.91;100.00
967;BME280;56108;48.730;9.304;2022-10-15T09:17:04;97199.81;;;17.04;100.00
967;BME280;56108;48.730;9.304;2022-10-15T09:19:16;97204.41;;;17.11;100.00
967;BME280;56108;48.730;9.304;2022-10-15T09:21:25;97209.41;;;17.06;100.00
967;BME280;56108;48.730;9.304;2022-10-15T09:23:46;97205.31;;;17.20;100.00
967;BME280;56108;48.730;9.304;2022-10-15T09:26:07;97212.94;;;17.33;100.00
967;BME280;56108;48.730;9.304;2022-10-15T09:28:41;97211.72;;;17.27;100.00
967;BME280;56108;48.730;9.304;2022-10-15T09:30:58;97226.81;;;17.46;100.00
967;BME280;56108;48.730;9.304;2022-10-15T09:33:15;97228.03;;;17.52;100.00
967;BME280;56108;48.730;9.304;2022-10-15T09:35:30;97222.50;;;17.79;100.00
967;BME280;56108;48.730;9.304;2022-10-15T09:37:49;97237.03;;;17.94;100.00
967;BME280;56108;48.730;9.304;2022-10-15T09:40:26;97247.63;;;18.30;100.00
967;BME280;56108;48.730;9.304;2022-10-15T09:42:41;97243.72;;;18.75;100.00
967;BME280;56108;48.730;9.304;2022-10-15T09:44:58;97239.84;;;18.94;100.00
967;BME280;56108;48.730;9.304;2022-10-15T09:47:19;97253.53;;;19.17;100.00
967;BME280;56108;48.730;9.304;2022-10-15T09:49:38;97249.78;;;18.93;98.33
967;BME280;56108;48.730;9.304;2022-10-15T09:51:53;97241.03;;;19.32;99.33
967;BME280;56108;48.730;9.304;2022-10-15T09:54:13;97245.72;;;19.46;95.25
967;BME280;56108;48.730;9.304;2022-10-15T09:56:35;97264.88;;;20.40;90.90
967;BME280;56108;48.730;9.304;2022-10-15T09:58:49;97257.50;;;20.33;87.45
967;BME280;56108;48.730;9.304;2022-10-15T10:01:04;97262.69;;;21.05;84.79
967;BME280;56108;48.730;9.304;2022-10-15T10:03:16;97257.25;;;21.66;79.71
967;BME280;56108;48.730;9.304;2022-10-15T10:05:28;97256.63;;;21.79;78.02
967;BME280;56108;48.730;9.304;2022-10-15T10:07:37;97262.25;;;21.40;78.25
967;BME280;56108;48.730;9.304;2022-10-15T10:09:49;97263.03;;;21.25;79.16
967;BME280;56108;48.730;9.304;2022-10-15T10:12:01;97261.66;;;20.52;80.12
967;BME280;56108;48.730;9.304;2022-10-15T10:14:21;97265.34;;;21.28;79.44
967;BME280;56108;48.730;9.304;2022-10-15T10:22:31;97289.72;;;24.47;61.27
967;BME280;56108;48.730;9.304;2022-10-15T10:25:31;97285.59;;;23.95;60.45
967;BME280;56108;48.730;9.304;2022-10-15T10:28:15;97281.81;;;23.40;64.83
967;BME280;56108;48.730;9.304;2022-10-15T10:30:24;97288.31;;;22.67;65.72
967;BME280;56108;48.730;9.304;2022-10-15T10:32:50;97275.44;;;22.10;69.35
967;BME280;56108;48.730;9.304;2022-10-15T10:35:42;97278.19;;;20.89;74.54
967;BME280;56108;48.730;9.304;2022-10-15T10:38:22;97280.47;;;20.38;76.75
967;BME280;56108;48.730;9.304;2022-10-15T10:41:09;97278.78;;;20.37;78.56
967;BME280;56108;48.730;9.304;2022-10-15T10:43:56;97273.47;;;20.12;80.73
967;BME280;56108;48.730;9.304;2022-10-15T10:46:28;97277.97;;;19.64;81.34
967;BME280;56108;48.730;9.304;2022-10-15T10:49:01;97277.97;;;19.07;82.99
967;BME280;56108;48.730;9.304;2022-10-15T10:51:15;97278.94;;;18.82;84.80
967;BME280;56108;48.730;9.304;2022-10-15T10:53:30;97283.44;;;18.65;85.37
967;BME280;56108;48.730;9.304;2022-10-15T10:55:38;97284.13;;;18.24;87.37
967;BME280;56108;48.730;9.304;2022-10-15T10:57:50;97285.75;;;18.51;87.45
967;BME280;56108;48.730;9.304;2022-10-15T11:00:05;97289.25;;;18.44;88.56
967;BME280;56108;48.730;9.304;2022-10-15T11:02:16;97294.66;;;18.52;89.59
967;BME280;56108;48.730;9.304;2022-10-15T11:04:27;97293.81;;;18.51;88.69
967;BME280;56108;48.730;9.304;2022-10-15T11:06:51;97289.63;;;18.49;87.82
967;BME280;56108;48.730;9.304;2022-10-15T11:09:23;97284.44;;;18.64;87.88
967;BME280;56108;48.730;9.304;2022-10-15T11:11:44;97282.81;;;18.71;87.84
967;BME280;56108;48.730;9.304;2022-10-15T11:14:04;97282.72;;;18.55;88.02
967;BME280;56108;48.730;9.304;2022-10-15T11:16:26;97271.66;;;18.74;87.45
967;BME280;56108;48.730;9.304;2022-10-15T11:18:51;97271.06;;;19.13;87.21
967;BME280;56108;48.730;9.304;2022-10-15T11:21:09;97267.84;;;19.09;85.43
967;BME280;56108;48.730;9.304;2022-10-15T11:23:38;97280.81;;;18.97;83.03
967;BME280;56108;48.730;9.304;2022-10-15T11:25:57;97278.16;;;19.06;81.39
967;BME280;56108;48.730;9.304;2022-10-15T11:28:23;97265.84;;;19.11;83.74
967;BME280;56108;48.730;9.304;2022-10-15T11:30:44;97266.19;;;19.16;82.65
967;BME280;56108;48.730;9.304;2022-10-15T11:33:00;97272.72;;;19.30;81.69
967;BME280;56108;48.730;9.304;2022-10-15T11:35:23;97273.41;;;19.24;81.04
967;BME280;56108;48.730;9.304;2022-10-15T11:38:03;97269.34;;;19.36;78.41
967;BME280;56108;48.730;9.304;2022-10-15T11:40:24;97267.50;;;19.28;79.77
967;BME280;56108;48.730;9.304;2022-10-15T11:42:44;97273.75;;;19.29;79.02
967;BME280;56108;48.730;9.304;2022-10-15T11:45:05;97275.28;;;19.32;80.52
967;BME280;56108;48.730;9.304;2022-10-15T11:47:27;97264.81;;;19.28;80.49
967;BME280;56108;48.730;9.304;2022-10-15T11:49:46;97263.97;;;19.20;78.59
967;BME280;56108;48.730;9.304;2022-10-15T11:52:19;97269.38;;;19.12;78.42
967;BME280;56108;48.730;9.304;2022-10-15T11:54:34;97265.66;;;19.29;77.84
967;BME280;56108;48.730;9.304;2022-10-15T11:58:59;97256.72;;;19.45;76.12
967;BME280;56108;48.730;9.304;2022-10-15T12:01:15;97255.72;;;19.38;74.49
967;BME280;56108;48.730;9.304;2022-10-15T12:03:29;97254.69;;;19.30;74.02
967;BME280;56108;48.730;9.304;2022-10-15T12:05:44;97230.94;;;19.18;75.41
967;BME280;56108;48.730;9.304;2022-10-15T12:07:53;97240.19;;;19.15;75.10
967;BME280;56108;48.730;9.304;2022-10-15T12:10:08;97242.22;;;19.38;74.13
967;BME280;56108;48.730;9.304;2022-10-15T12:12:35;97241.38;;;19.37;74.08
967;BME280;56108;48.730;9.304;2022-10-15T12:14:48;97243.03;;;19.54;75.19